Thursday, October 19, 2017, 7:00 AM EDT
Back to Local

KIPT, Williamsport-lycoming County

Location: Montoursville, PA, United States Lat: 41.25
Local Time: 7:00 AM EDT (11:00 GMT) Lon: -76.917
Time Zone: US/Eastern Elev: 528 ft

Show me the last for .
Show Decoded

2017-10-19 06:22 METAR KIPT 191022Z AUTO 00000KT 5SM BR OVC002 06/06 A3023 RMK AO2 T00610061 =
2017-10-19 06:09 METAR KIPT 191009Z AUTO 00000KT 1 1/4SM BR OVC002 06/06 A3022 RMK AO2 T00610056
                 =
2017-10-19 05:54 METAR KIPT 190954Z AUTO 34003KT 1/4SM FG VV002 07/06 A3022 RMK AO2 SLP235
                 T00670061 =
2017-10-19 05:40 METAR KIPT 190940Z AUTO 00000KT 1/4SM FG VV002 07/07 A3022 RMK AO2 T00720067 =
2017-10-19 05:21 METAR KIPT 190921Z AUTO 00000KT 1/2SM FG VV002 07/06 A3023 RMK AO2 T00670061 =
2017-10-19 05:13 METAR KIPT 190913Z AUTO 00000KT 1 1/2SM BR OVC002 07/06 A3022 RMK AO2 VIS 1/4V5
                 T00720061 =
2017-10-19 04:54 METAR KIPT 190854Z AUTO 00000KT 10SM OVC002 07/06 A3023 RMK AO2 SLP236 T00720061
                 55004 =
2017-10-19 03:54 METAR KIPT 190754Z AUTO 00000KT 10SM OVC002 07/06 A3023 RMK AO2 SLP236 T00670056
                 =
2017-10-19 02:54 METAR KIPT 190654Z AUTO 00000KT 10SM OVC002 07/07 A3024 RMK AO2 SLP239 T00720067
                 =
2017-10-19 02:34 METAR KIPT 190634Z AUTO 00000KT 9SM BKN002 08/07 A3024 RMK AO2 T00780067 =
2017-10-19 02:26 METAR KIPT 190626Z AUTO 00000KT 9SM SCT002 07/06 A3023 RMK AO2 T00720061 =
2017-10-19 01:54 METAR KIPT 190554Z AUTO 00000KT 10SM CLR 08/07 A3024 RMK AO2 SLP240 T00830067
                 10144 20078 56005 =
2017-10-19 00:54 METAR KIPT 190454Z AUTO 00000KT 10SM CLR 08/07 A3024 RMK AO2 SLP240 T00830072
                 402170044 =
2017-10-18 23:54 METAR KIPT 190354Z AUTO 00000KT 10SM CLR 09/08 A3025 RMK AO2 SLP244 T00940078 =
2017-10-18 22:54 METAR KIPT 190254Z AUTO 00000KT 10SM CLR 09/08 A3025 RMK AO2 SLP246 T00940083
                 53002 =
2017-10-18 21:54 METAR KIPT 190154Z 30003KT 10SM CLR 11/09 A3025 RMK AO2 SLP247 T01110089 =
2017-10-18 20:54 METAR KIPT 190054Z 00000KT 10SM CLR 13/09 A3025 RMK AO2 SLP245 T01280089 =
2017-10-18 19:54 METAR KIPT 182354Z 36003KT 10SM CLR 14/09 A3025 RMK AO2 SLP245 T01390094 10217
                 20139 53008 =
2017-10-18 18:54 METAR KIPT 182254Z 00000KT 10SM CLR 16/09 A3023 RMK AO2 SLP239 T01610089 =
2017-10-18 17:54 METAR KIPT 182154Z 00000KT 10SM CLR 18/11 A3022 RMK AO2 SLP235 T01830106 =
2017-10-18 16:54 METAR KIPT 182054Z 09004KT 10SM CLR 22/09 A3022 RMK AO2 SLP235 T02170094 56020 =
2017-10-18 15:54 METAR KIPT 181954Z 11005KT 10SM CLR 22/09 A3024 RMK AO2 SLP241 T02170089 =
2017-10-18 14:54 METAR KIPT 181854Z 10003KT 10SM CLR 21/08 A3026 RMK AO2 SLP247 T02060078 =
2017-10-18 13:54 METAR KIPT 181754Z VRB04KT 10SM CLR 19/07 A3028 RMK AO2 SLP256 T01940072 10200
                 20050 58024 =
2017-10-18 13:03 METAR KIPT 181703Z VRB03KT 10SM CLR 19/07 A3031 RMK AO2 T01940072 =
2017-10-18 12:54 METAR KIPT 181654Z 26004KT 2SM HZ CLR 19/07 A3032 RMK AO2 SLP269 T01890067 =
2017-10-18 11:54 METAR KIPT 181554Z 13004KT 10SM CLR 14/08 A3035 RMK AO2 SLP279 T01440078 =
2017-10-18 10:54 METAR KIPT 181454Z 00000KT 10SM CLR 11/07 A3035 RMK AO2 SLP281 T01110072 58004 =
2017-10-18 10:03 METAR KIPT 181403Z 00000KT 7SM FEW003 08/07 A3036 RMK AO2 T00780067 =
2017-10-18 09:54 METAR KIPT 181354Z 32003KT 5SM BR BKN003 07/06 A3037 RMK AO2 SLP286 T00720061 =
2017-10-18 09:14 METAR KIPT 181314Z 00000KT 2 1/2SM BR OVC002 06/06 A3037 RMK AO2 T00610056 =
2017-10-18 08:54 METAR KIPT 181254Z 00000KT 1SM BR OVC002 06/06 A3037 RMK AO2 SLP286 T00560056 =
2017-10-18 08:50 METAR KIPT 181250Z 00000KT 3/4SM BR VV002 06/06 A3037 RMK AO2 =
2017-10-18 08:20 METAR KIPT 181220Z 00000KT 1/4SM FG VV003 06/05 A3036 RMK AO2 T00560050 =
2017-10-18 07:54 METAR KIPT 181154Z 35003KT 3/4SM BR OVC002 05/04 A3035 RMK AO2 SLP279 T00500044
                 10056 20044 51017 =
2017-10-18 07:33 METAR KIPT 181133Z 33003KT 1/4SM FG VV002 06/05 A3034 RMK AO2 T00560050 =
2017-10-18 07:25 METAR KIPT 181125Z 34003KT 1 1/2SM BR OVC002 06/04 A3034 RMK AO2 T00560044 =
2017-10-18 07:16 METAR KIPT 181116Z 01003KT 5SM BR OVC002 05/04 A3034 RMK AO2 T00500044 =
2017-10-18 07:04 METAR KIPT 181104Z 00000KT 2 1/2SM BR OVC004 05/04 A3034 RMK AO2 CIG 002V006
                 T00500039 =

Support USWX by starting your Amazon purchase here.